Time;durP1;ratioP1;P1;durP2;ratioP2;P2;SDS_P1;SDS_P2;PMS_P1;PMS_P2;Temp;Humidity;BMP_temperature;BMP_pressure;BME280_temperature;BME280_humidity;BME280_pressure;Samples;Min_cycle;Max_cycle;Signal;HPM_P1;HPM_P2
2022/07/30 00:00:57;;;;;;;4.32;3.42;;;;;;;22.14;64.32;100173.78;10463771;28;20344;-55
2022/07/30 00:05:58;;;;;;;3.97;3.58;;;;;;;22.15;64.54;100175.47;10463464;28;20178;-54
2022/07/30 00:11:00;;;;;;;4.25;3.20;;;;;;;22.16;64.21;100163.59;10468780;28;22724;-57
2022/07/30 00:16:02;;;;;;;4.15;3.67;;;;;;;21.84;64.52;100162.41;10466339;28;20048;-55
2022/07/30 00:21:03;;;;;;;4.53;3.60;;;;;;;21.83;65.32;100164.28;10458275;28;20048;-58
2022/07/30 00:26:04;;;;;;;3.92;3.33;;;;;;;21.91;65.11;100154.31;10464498;28;20048;-59
2022/07/30 00:31:07;;;;;;;3.20;2.87;;;;;;;21.92;64.46;100150.56;10457614;28;20045;-58
2022/07/30 00:36:09;;;;;;;3.70;3.40;;;;;;;21.88;64.11;100140.13;10461365;28;20328;-58
2022/07/30 00:41:11;;;;;;;3.80;3.40;;;;;;;21.81;64.20;100146.53;10462743;28;20132;-57
2022/07/30 00:46:15;;;;;;;3.13;2.83;;;;;;;21.78;64.51;100157.78;10460575;28;20149;-55
2022/07/30 00:51:17;;;;;;;3.28;2.80;;;;;;;21.67;64.50;100151.06;10445141;28;20079;-60
2022/07/30 00:56:18;;;;;;;3.63;2.83;;;;;;;21.59;64.41;100138.50;10460669;28;20158;-58
2022/07/30 01:01:20;;;;;;;3.92;2.85;;;;;;;21.51;64.39;100135.94;10461187;28;20127;-57
2022/07/30 01:06:21;;;;;;;3.20;3.00;;;;;;;21.45;64.76;100129.44;10459410;28;20060;-60
2022/07/30 01:11:30;;;;;;;4.18;3.20;;;;;;;21.39;64.03;100118.53;10460103;28;20052;-56
2022/07/30 01:16:33;;;;;;;3.03;2.80;;;;;;;21.34;64.53;100119.97;10442554;28;20040;-58
2022/07/30 01:21:42;;;;;;;4.07;2.80;;;;;;;21.31;63.88;100127.66;10455512;28;20177;-54
2022/07/30 01:26:44;;;;;;;2.85;2.55;;;;;;;21.25;63.73;100131.97;10446233;28;20506;-54
2022/07/30 01:31:48;;;;;;;3.15;2.85;;;;;;;21.17;65.03;100122.13;10458168;28;20242;-59
2022/07/30 01:36:49;;;;;;;3.20;2.88;;;;;;;21.13;64.31;100128.97;10455482;28;20137;-55
2022/07/30 01:41:53;;;;;;;4.15;2.80;;;;;;;21.11;64.63;100141.88;10457730;28;20118;-55
2022/07/30 01:46:55;;;;;;;3.38;3.03;;;;;;;21.05;63.94;100137.25;10457650;28;20279;-54
2022/07/30 01:51:59;;;;;;;2.70;2.42;;;;;;;21.04;64.82;100149.09;10459815;28;20608;-60
2022/07/30 01:57:01;;;;;;;;;;;;;;;21.10;64.32;100145.59;10455097;28;20135;-56
2022/07/30 02:02:03;;;;;;;2.92;2.50;;;;;;;21.15;64.61;100151.28;10458136;28;20491;-57
2022/07/30 02:07:13;;;;;;;4.07;2.58;;;;;;;21.11;64.24;100146.44;10461318;28;20135;-61
2022/07/30 02:12:28;;;;;;;3.95;2.90;;;;;;;20.97;63.82;100148.19;10463800;28;20080;-54
2022/07/30 02:17:37;;;;;;;3.20;2.80;;;;;;;20.89;63.97;100159.16;10466021;28;20044;-60
2022/07/30 02:22:45;;;;;;;3.20;2.90;;;;;;;20.81;64.26;100163.66;10461647;28;20048;-61
2022/07/30 02:27:57;;;;;;;4.03;2.92;;;;;;;20.72;64.86;100174.81;10467530;28;20200;-59
2022/07/30 02:33:03;;;;;;;2.78;2.58;;;;;;;20.47;65.67;100173.22;10467633;28;20149;-58
2022/07/30 02:38:06;;;;;;;2.88;2.60;;;;;;;20.55;66.11;100174.16;10466873;28;20151;-59
2022/07/30 02:43:08;;;;;;;3.33;2.60;;;;;;;20.56;64.98;100173.13;10467311;28;20167;-56
2022/07/30 02:48:12;;;;;;;2.95;2.72;;;;;;;20.41;65.50;100178.56;10468188;28;20050;-59
2022/07/30 02:53:35;;;;;;;;;;;;;;;20.21;66.69;100189.16;10464638;28;20058;-58
2022/07/30 02:58:39;;;;;;;4.60;2.90;;;;;;;20.28;67.24;100187.34;10470404;28;19932;-54
2022/07/30 03:03:44;;;;;;;3.88;2.92;;;;;;;20.22;66.65;100185.41;10458107;28;20044;-56
2022/07/30 03:08:45;;;;;;;4.55;3.13;;;;;;;20.23;66.62;100185.22;10453427;28;20505;-61
2022/07/30 03:13:47;;;;;;;3.13;2.88;;;;;;;20.16;66.28;100183.47;10468528;28;20605;-56
2022/07/30 03:18:48;;;;;;;3.63;3.20;;;;;;;20.25;66.02;100198.53;10463183;28;20082;-55
2022/07/30 03:23:53;;;;;;;3.38;3.00;;;;;;;20.19;65.95;100204.69;10448312;28;20052;-60
2022/07/30 03:28:55;;;;;;;3.72;2.90;;;;;;;20.14;66.54;100206.09;10463507;28;20544;-57
2022/07/30 03:33:57;;;;;;;3.15;2.88;;;;;;;20.11;66.37;100209.16;10458452;28;20080;-60
2022/07/30 03:39:00;;;;;;;3.13;2.83;;;;;;;20.13;66.25;100201.72;10473963;28;20131;-60
2022/07/30 03:44:02;;;;;;;3.50;3.03;;;;;;;20.09;67.29;100215.81;10465276;28;20131;-61
2022/07/30 03:49:04;;;;;;;3.83;3.30;;;;;;;20.05;67.86;100207.22;10463030;28;20064;-61
2022/07/30 03:54:08;;;;;;;4.73;4.33;;;;;;;19.89;68.43;100219.06;10462623;28;20139;-60
2022/07/30 03:59:14;;;;;;;4.70;3.15;;;;;;;19.82;68.50;100217.28;10443003;28;20162;-57
2022/07/30 04:04:15;;;;;;;3.80;3.40;;;;;;;19.77;69.22;100218.69;10459085;28;20052;-57
2022/07/30 04:09:17;;;;;;;3.78;3.47;;;;;;;19.81;69.34;100221.84;10461900;28;20159;-59
2022/07/30 04:14:18;;;;;;;4.13;3.72;;;;;;;19.74;69.92;100221.72;10466611;28;20052;-58
2022/07/30 04:19:34;;;;;;;4.40;3.20;;;;;;;19.63;70.61;100230.25;10470945;28;20469;-54
2022/07/30 04:24:38;;;;;;;9.15;4.15;;;;;;;19.62;69.77;100239.34;10464038;28;20064;-55
2022/07/30 04:29:40;;;;;;;3.83;3.53;;;;;;;19.54;70.53;100242.97;10466474;28;20585;-53
2022/07/30 04:34:53;;;;;;;4.20;3.28;;;;;;;19.71;70.83;100241.00;10455464;28;20689;-54
2022/07/30 04:39:56;;;;;;;5.25;4.15;;;;;;;19.75;70.12;100255.78;10460430;28;20570;-57
2022/07/30 04:44:57;;;;;;;4.05;3.55;;;;;;;19.87;70.10;100253.50;10455111;28;20054;-55
2022/07/30 04:49:59;;;;;;;6.00;4.60;;;;;;;19.88;69.95;100266.00;10454208;28;20086;-53
2022/07/30 04:55:04;;;;;;;5.75;4.57;;;;;;;19.89;70.57;100267.69;10428576;28;20815;-64
2022/07/30 05:00:08;;;;;;;5.18;4.72;;;;;;;19.85;70.28;100271.75;10438564;28;20138;-64
2022/07/30 05:05:14;;;;;;;5.30;4.80;;;;;;;19.74;70.50;100274.88;10434279;28;20160;-64
2022/07/30 05:10:16;;;;;;;8.35;4.80;;;;;;;19.78;70.80;100277.03;10430537;28;20525;-64
2022/07/30 05:15:18;;;;;;;5.63;5.05;;;;;;;19.97;70.92;100280.25;10433495;28;20089;-64
2022/07/30 05:20:20;;;;;;;5.80;4.72;;;;;;;19.94;69.60;100278.75;10434002;28;20051;-65
2022/07/30 05:25:22;;;;;;;5.75;4.50;;;;;;;19.95;70.21;100287.69;10431550;28;20319;-66
2022/07/30 05:30:24;;;;;;;6.47;4.68;;;;;;;20.07;70.20;100291.66;10429844;28;20040;-65
2022/07/30 05:35:28;;;;;;;5.35;3.97;;;;;;;20.22;68.92;100288.97;10430414;28;20260;-65
2022/07/30 05:40:29;;;;;;;5.03;4.03;;;;;;;20.32;69.68;100291.38;10410496;28;20183;-65
2022/07/30 05:45:31;;;;;;;5.72;4.10;;;;;;;20.49;69.68;100292.84;10431272;28;20051;-65
2022/07/30 05:50:32;;;;;;;4.60;4.20;;;;;;;20.54;67.91;100292.28;10435079;28;20147;-63
2022/07/30 05:55:34;;;;;;;4.50;4.10;;;;;;;20.53;68.31;100298.72;10428084;28;20052;-65
2022/07/30 06:00:36;;;;;;;5.97;4.75;;;;;;;20.55;67.51;100291.28;10427882;28;20059;-63
2022/07/30 06:05:38;;;;;;;5.65;4.00;;;;;;;20.60;67.79;100294.25;10431929;28;20246;-64
2022/07/30 06:10:39;;;;;;;4.43;4.03;;;;;;;20.71;67.99;100300.22;10418325;22;20528;-61
2022/07/30 06:15:41;;;;;;;5.75;5.25;;;;;;;20.73;67.18;100292.75;10366744;28;20609;-62
2022/07/30 06:20:42;;;;;;;5.10;4.60;;;;;;;20.76;68.12;100304.06;10339622;28;20045;-62
2022/07/30 06:25:43;;;;;;;6.68;6.07;;;;;;;20.91;67.25;100297.75;10308731;28;20119;-62
2022/07/30 06:30:46;;;;;;;7.32;6.57;;;;;;;20.97;67.37;100299.69;10305769;28;20051;-62
2022/07/30 06:35:48;;;;;;;6.38;5.88;;;;;;;21.10;67.27;100302.56;10292725;28;20049;-62
2022/07/30 06:40:49;;;;;;;6.45;5.55;;;;;;;21.29;66.01;100305.69;10310193;28;20683;-62
2022/07/30 06:45:51;;;;;;;6.18;5.55;;;;;;;21.51;65.93;100306.53;10309051;28;20053;-62
2022/07/30 06:50:52;;;;;;;5.32;4.93;;;;;;;21.63;65.68;100299.59;10307384;28;20260;-63
2022/07/30 06:55:54;;;;;;;6.13;5.53;;;;;;;21.81;64.88;100312.66;10306109;28;20917;-62
2022/07/30 07:01:00;;;;;;;7.15;6.45;;;;;;;21.90;63.88;100310.63;10310901;28;20056;-63
2022/07/30 07:06:04;;;;;;;6.43;5.82;;;;;;;21.90;62.91;100307.91;10313038;28;20060;-63
2022/07/30 07:11:05;;;;;;;6.88;6.00;;;;;;;21.99;62.98;100311.31;10312357;28;20049;-63
2022/07/30 07:16:07;;;;;;;6.05;4.88;;;;;;;22.16;61.97;100318.13;10312878;28;20116;-63
2022/07/30 07:21:08;;;;;;;6.32;5.72;;;;;;;22.21;61.62;100321.06;10314914;28;20045;-62
2022/07/30 07:26:11;;;;;;;6.43;5.82;;;;;;;22.29;60.42;100308.41;10312286;28;20163;-63
2022/07/30 07:31:12;;;;;;;4.97;4.23;;;;;;;22.63;60.09;100301.31;10296655;28;20327;-63
2022/07/30 07:36:35;;;;;;;7.40;6.30;;;;;;;22.61;58.65;100306.94;10314011;28;20068;-64
2022/07/30 07:41:36;;;;;;;6.87;6.20;;;;;;;22.79;58.65;100309.09;10297857;28;20114;-63
2022/07/30 07:46:49;;;;;;;;;;;;;;;23.03;57.29;100305.00;10314047;28;20053;-63
2022/07/30 07:51:51;;;;;;;7.85;5.32;;;;;;;23.30;56.71;100308.66;10317739;28;20225;-63
2022/07/30 07:56:54;;;;;;;4.97;4.45;;;;;;;23.60;55.74;100308.28;10314559;28;20215;-63
2022/07/30 08:01:57;;;;;;;8.57;5.47;;;;;;;23.88;54.77;100307.25;10317816;28;20062;-64
2022/07/30 08:07:03;;;;;;;6.00;5.40;;;;;;;23.98;52.90;100310.38;10299128;28;20054;-64
2022/07/30 08:12:06;;;;;;;8.40;4.33;;;;;;;24.33;53.22;100304.66;10296851;28;20574;-64
2022/07/30 08:17:08;;;;;;;7.45;5.13;;;;;;;24.77;51.15;100309.59;10324027;28;20049;-63
2022/07/30 08:22:10;;;;;;;6.15;5.55;;;;;;;24.79;50.40;100310.22;10318697;28;20695;-64
2022/07/30 08:27:11;;;;;;;5.28;4.57;;;;;;;25.08;49.41;100305.28;10316791;28;20148;-63
2022/07/30 08:32:12;;;;;;;7.25;4.25;;;;;;;25.35;48.00;100304.06;10316905;28;20536;-62
2022/07/30 08:37:14;;;;;;;5.20;4.10;;;;;;;25.65;47.52;100303.44;10316617;28;20135;-62
2022/07/30 08:42:16;;;;;;;7.18;4.95;;;;;;;25.06;46.95;100309.03;10313691;28;21222;-63
2022/07/30 08:47:22;;;;;;;6.75;3.83;;;;;;;24.69;47.93;100295.16;10315786;28;20045;-63
2022/07/30 08:52:24;;;;;;;6.15;4.80;;;;;;;24.52;47.90;100293.97;10313540;28;20156;-63
2022/07/30 08:57:28;;;;;;;7.30;4.03;;;;;;;24.45;47.76;100296.69;10316664;28;20055;-63
2022/07/30 09:02:30;;;;;;;6.88;3.97;;;;;;;24.33;48.42;100307.41;10321483;28;20137;-63
2022/07/30 09:07:33;;;;;;;6.63;3.63;;;;;;;24.62;49.05;100310.72;10319139;28;20367;-65
2022/07/30 09:12:41;;;;;;;6.00;5.40;;;;;;;24.77;47.07;100313.16;10314007;28;20076;-64
2022/07/30 09:17:53;;;;;;;6.43;4.82;;;;;;;24.63;46.97;100317.81;10305181;28;20099;-64
2022/07/30 09:22:57;;;;;;;8.07;5.88;;;;;;;24.61;46.23;100319.91;10287089;28;20046;-64
2022/07/30 09:27:59;;;;;;;6.25;4.10;;;;;;;24.73;47.44;100316.53;10311898;28;20141;-64
2022/07/30 09:33:02;;;;;;;7.65;4.20;;;;;;;24.94;47.59;100318.94;10309482;28;20315;-64
2022/07/30 09:38:05;;;;;;;7.50;4.47;;;;;;;25.09;46.67;100318.66;10311620;28;20133;-64
2022/07/30 09:43:09;;;;;;;5.68;4.45;;;;;;;25.21;45.69;100316.09;10312439;28;20056;-64
2022/07/30 09:48:22;;;;;;;4.80;3.70;;;;;;;25.51;45.81;100321.78;10313512;28;20057;-64
2022/07/30 09:53:23;;;;;;;6.73;4.30;;;;;;;25.64;45.14;100317.28;10309699;28;20076;-65
2022/07/30 09:58:40;;;;;;;5.50;4.00;;;;;;;25.85;42.19;100308.75;10290813;28;20045;-65
2022/07/30 10:03:46;;;;;;;5.43;4.75;;;;;;;26.40;41.42;100313.47;10294358;28;20573;-65
2022/07/30 10:08:50;;;;;;;4.13;3.03;;;;;;;26.37;41.14;100316.63;10311791;28;20494;-64
2022/07/30 10:13:53;;;;;;;5.25;3.30;;;;;;;26.59;40.38;100316.22;10318555;28;20065;-65
2022/07/30 10:18:59;;;;;;;6.22;3.67;;;;;;;27.30;38.20;100303.72;10320163;28;20057;-64
2022/07/30 10:24:01;;;;;;;5.47;2.65;;;;;;;28.10;37.18;100303.53;10321707;28;20809;-65
2022/07/30 10:29:03;;;;;;;5.23;3.23;;;;;;;28.63;34.51;100301.69;10325185;28;20247;-63
2022/07/30 10:34:06;;;;;;;3.63;2.80;;;;;;;28.33;35.54;100289.84;10327303;28;20053;-64
2022/07/30 10:39:11;;;;;;;3.83;2.35;;;;;;;28.96;35.29;100287.31;10329818;28;20485;-64
2022/07/30 10:44:58;;;;;;;4.47;3.35;;;;;;;28.72;33.69;100281.09;10332041;28;20069;-64
2022/07/30 10:50:21;;;;;;;4.00;2.15;;;;;;;27.55;34.79;100280.03;10294770;28;20184;-63
2022/07/30 10:55:23;;;;;;;2.47;2.28;;;;;;;27.84;32.23;100281.84;10328773;28;20580;-64
2022/07/30 11:00:42;;;;;;;3.35;2.45;;;;;;;28.18;32.01;100284.03;10309193;28;20112;-64
2022/07/30 11:05:46;;;;;;;3.47;1.55;;;;;;;29.47;32.11;100275.63;10329002;28;20093;-64
2022/07/30 11:10:48;;;;;;;4.05;2.00;;;;;;;29.37;29.92;100281.78;10329405;28;20049;-64
2022/07/30 11:15:58;;;;;;;2.97;1.80;;;;;;;29.53;31.00;100280.94;10327096;28;20145;-63
2022/07/30 11:21:13;;;;;;;3.38;1.60;;;;;;;29.70;29.41;100274.63;10308702;28;20119;-64
2022/07/30 11:26:46;;;;;;;6.05;2.33;;;;;;;29.60;30.05;100270.63;10322956;28;20145;-64
2022/07/30 11:31:49;;;;;;;2.55;1.83;;;;;;;29.82;30.42;100269.91;10325113;28;20744;-63
2022/07/30 11:37:07;;;;;;;2.90;1.60;;;;;;;29.54;30.88;100276.28;10328873;28;20042;-63
2022/07/30 11:42:37;;;;;;;4.28;1.80;;;;;;;30.63;28.48;100260.31;10321728;28;20159;-63
2022/07/30 11:47:39;;;;;;;3.75;2.00;;;;;;;30.81;29.63;100259.97;10325485;28;20049;-63
2022/07/30 11:52:40;;;;;;;;;;;;;;;30.43;27.43;100277.34;10331875;28;20529;-63
2022/07/30 11:57:43;;;;;;;2.97;1.80;;;;;;;29.67;30.00;100264.97;10334354;28;20366;-64
2022/07/30 12:02:46;;;;;;;1.98;1.42;;;;;;;30.15;30.37;100257.22;10323936;28;20135;-63
2022/07/30 12:07:57;;;;;;;4.20;1.88;;;;;;;30.38;28.21;100258.88;10328958;28;20045;-63
2022/07/30 12:13:13;;;;;;;5.38;1.90;;;;;;;30.51;29.61;100265.94;10321550;28;20191;-63
2022/07/30 12:18:28;;;;;;;2.03;1.70;;;;;;;30.65;29.28;100258.94;10325505;28;20156;-63
2022/07/30 12:23:31;;;;;;;4.70;1.90;;;;;;;30.67;28.20;100259.53;10325936;28;20049;-63
2022/07/30 12:28:34;;;;;;;3.30;1.85;;;;;;;30.46;27.79;100247.50;10312012;28;20103;-63
2022/07/30 12:33:37;;;;;;;3.50;1.45;;;;;;;30.41;28.44;100247.41;10326836;28;20089;-63
2022/07/30 12:38:46;;;;;;;3.08;1.50;;;;;;;30.61;28.26;100246.84;10322720;28;20064;-63
2022/07/30 12:43:48;;;;;;;2.83;1.58;;;;;;;30.66;27.15;100241.41;10321035;28;20400;-63
2022/07/30 12:48:59;;;;;;;3.45;1.65;;;;;;;30.75;27.95;100238.19;10322361;28;20049;-63
2022/07/30 12:54:21;;;;;;;2.97;1.20;;;;;;;30.43;27.33;100245.25;10324703;28;20064;-64
2022/07/30 12:59:23;;;;;;;3.20;1.65;;;;;;;30.30;26.78;100227.22;10321544;28;20050;-63
2022/07/30 13:04:25;;;;;;;2.00;1.30;;;;;;;30.30;26.65;100229.94;10337147;28;20144;-64
2022/07/30 13:09:27;;;;;;;2.25;1.70;;;;;;;29.77;28.65;100220.41;10333343;28;20050;-63
2022/07/30 13:14:28;;;;;;;2.40;1.70;;;;;;;29.61;26.63;100233.91;10330559;28;20251;-63
2022/07/30 13:19:30;;;;;;;1.73;1.27;;;;;;;29.87;26.90;100223.34;10306793;28;20123;-64
2022/07/30 13:24:32;;;;;;;2.47;1.70;;;;;;;29.66;27.48;100232.31;10335777;28;20127;-64
2022/07/30 13:29:34;;;;;;;2.15;1.27;;;;;;;29.41;27.28;100233.56;10340698;28;20128;-64
2022/07/30 13:34:40;;;;;;;3.47;2.00;;;;;;;29.89;27.19;100234.06;10325323;28;20195;-63
2022/07/30 13:39:50;;;;;;;3.15;1.85;;;;;;;29.75;27.11;100230.81;10218692;28;20053;-64
2022/07/30 13:44:51;;;;;;;2.90;2.50;;;;;;;29.62;27.30;100232.00;10342211;28;20136;-64
2022/07/30 13:49:52;;;;;;;2.37;1.50;;;;;;;29.86;28.20;100227.19;10342102;28;20053;-65
2022/07/30 13:54:54;;;;;;;5.00;1.93;;;;;;;29.81;27.74;100227.09;10321755;28;20046;-64
2022/07/30 13:59:56;;;;;;;1.40;1.30;;;;;;;29.99;29.05;100222.41;10323277;28;20415;-65
2022/07/30 14:04:57;;;;;;;3.83;2.35;;;;;;;30.00;28.21;100213.94;10337730;28;20148;-63
2022/07/30 14:09:58;;;;;;;2.35;1.80;;;;;;;29.62;27.92;100213.63;10345366;28;20137;-63
2022/07/30 14:15:00;;;;;;;2.93;1.90;;;;;;;29.06;29.21;100212.69;10348908;28;20150;-63
2022/07/30 14:20:02;;;;;;;3.20;1.50;;;;;;;28.99;29.56;100203.78;10343367;28;20141;-65
2022/07/30 14:25:05;;;;;;;2.58;1.80;;;;;;;29.21;29.34;100212.97;10325094;28;20515;-65
2022/07/30 14:30:08;;;;;;;2.95;1.77;;;;;;;29.11;28.69;100212.78;10347873;28;20388;-64
2022/07/30 14:35:10;;;;;;;3.45;1.73;;;;;;;28.66;29.34;100210.84;10345592;28;20144;-63
2022/07/30 14:40:11;;;;;;;3.42;1.60;;;;;;;28.69;29.09;100207.63;10345602;28;20651;-64
2022/07/30 14:45:13;;;;;;;1.30;1.20;;;;;;;28.74;29.68;100202.25;10343771;28;20077;-63
2022/07/30 14:50:14;;;;;;;3.60;1.63;;;;;;;28.86;30.02;100204.94;10341800;28;20119;-63
2022/07/30 14:55:16;;;;;;;4.10;1.20;;;;;;;28.94;29.40;100206.44;10346739;28;20466;-63
2022/07/30 15:00:18;;;;;;;2.03;1.23;;;;;;;28.82;29.01;100204.56;10347974;28;20103;-63
2022/07/30 15:05:21;;;;;;;1.75;1.30;;;;;;;28.79;29.02;100205.06;10339941;28;20529;-67
2022/07/30 15:10:23;;;;;;;2.43;1.37;;;;;;;28.86;29.03;100203.00;10350153;28;20140;-63
2022/07/30 15:15:25;;;;;;;4.47;1.52;;;;;;;28.76;28.84;100204.75;10327625;28;20490;-64
2022/07/30 15:20:31;;;;;;;3.25;1.55;;;;;;;28.44;28.70;100203.28;10347428;28;20422;-63
2022/07/30 15:25:32;;;;;;;2.47;1.38;;;;;;;28.34;28.81;100203.06;10342639;28;20157;-63
2022/07/30 15:30:35;;;;;;;2.10;1.83;;;;;;;28.29;28.18;100205.72;10346050;28;20909;-64
2022/07/30 15:35:37;;;;;;;3.42;1.30;;;;;;;28.24;28.73;100208.34;10343295;28;20727;-63
2022/07/30 15:40:38;;;;;;;3.13;1.63;;;;;;;28.24;27.76;100202.88;10350154;28;20497;-64
2022/07/30 15:45:41;;;;;;;2.53;1.17;;;;;;;28.19;26.99;100209.91;10341147;28;20706;-65
2022/07/30 15:51:01;;;;;;;3.38;1.13;;;;;;;28.17;27.32;100201.09;10343838;28;20045;-64
2022/07/30 15:56:03;;;;;;;2.72;1.25;;;;;;;28.14;26.39;100215.25;10342169;28;20065;-63
2022/07/30 16:01:04;;;;;;;1.50;0.80;;;;;;;28.18;26.63;100218.38;10344754;28;20051;-63
2022/07/30 16:06:06;;;;;;;2.57;1.37;;;;;;;28.28;27.26;100217.72;10333296;28;20459;-63
2022/07/30 16:11:07;;;;;;;1.50;1.05;;;;;;;28.29;26.64;100202.97;10339209;28;20654;-63
2022/07/30 16:16:11;;;;;;;4.32;1.50;;;;;;;28.06;26.67;100212.91;10329885;28;20055;-64
2022/07/30 16:21:12;;;;;;;1.70;1.10;;;;;;;27.76;27.73;100205.66;10335044;28;20316;-63
2022/07/30 16:26:14;;;;;;;6.57;2.38;;;;;;;27.72;27.45;100204.47;10331493;28;20041;-63
2022/07/30 16:31:15;;;;;;;3.10;1.30;;;;;;;27.63;27.15;100194.97;10328689;28;20050;-63
2022/07/30 16:36:17;;;;;;;2.88;1.20;;;;;;;27.54;27.24;100194.47;10330745;28;20247;-63
2022/07/30 16:41:18;;;;;;;2.85;1.10;;;;;;;27.53;27.68;100203.72;10333705;28;20159;-63
2022/07/30 16:46:25;;;;;;;1.80;1.30;;;;;;;27.39;26.55;100207.78;10306150;28;20057;-64
2022/07/30 16:51:36;;;;;;;2.42;1.50;;;;;;;27.31;27.11;100211.66;10205476;28;21529;-64
2022/07/30 16:56:37;;;;;;;2.30;1.23;;;;;;;27.27;27.40;100214.03;10333149;28;20866;-65
2022/07/30 17:01:38;;;;;;;4.43;0.85;;;;;;;27.31;27.80;100206.19;10335970;28;20065;-64
2022/07/30 17:06:42;;;;;;;1.20;0.82;;;;;;;27.29;27.40;100202.84;10337011;28;20218;-63
2022/07/30 17:11:44;;;;;;;3.35;1.60;;;;;;;27.16;28.12;100204.75;10334534;28;20060;-63
2022/07/30 17:16:52;;;;;;;1.63;1.10;;;;;;;27.12;28.08;100198.06;10325430;28;20342;-63
2022/07/30 17:21:53;;;;;;;3.00;1.38;;;;;;;27.17;27.88;100214.59;10326814;28;20120;-63
2022/07/30 17:26:55;;;;;;;2.28;1.13;;;;;;;27.12;27.38;100213.63;10324668;28;20140;-63
2022/07/30 17:31:57;;;;;;;1.43;1.17;;;;;;;26.98;27.05;100226.66;10324668;28;20440;-63
2022/07/30 17:36:58;;;;;;;2.58;1.20;;;;;;;26.93;26.99;100223.78;10308356;28;20060;-63
2022/07/30 17:41:59;;;;;;;2.20;0.68;;;;;;;26.89;26.82;100228.91;10319767;28;20041;-63
2022/07/30 17:47:08;;;;;;;1.02;0.40;;;;;;;26.80;26.50;100228.38;10319297;28;20101;-65
2022/07/30 17:52:16;;;;;;;1.05;0.40;;;;;;;26.63;26.96;100224.59;10320811;28;20057;-66
2022/07/30 17:57:19;;;;;;;3.75;0.93;;;;;;;26.50;26.94;100228.34;10317589;28;20104;-66
2022/07/30 18:02:20;;;;;;;0.80;0.30;;;;;;;26.41;27.64;100232.44;10317805;28;20104;-67
2022/07/30 18:07:29;;;;;;;2.42;0.85;;;;;;;26.31;28.21;100229.41;10321828;28;20049;-65
2022/07/30 18:12:30;;;;;;;1.77;1.05;;;;;;;26.20;28.86;100231.03;10360641;22;20047;-65
2022/07/30 18:17:32;;;;;;;3.40;2.83;;;;;;;26.06;29.02;100239.34;10413623;28;20580;-65
2022/07/30 18:22:34;;;;;;;3.97;2.05;;;;;;;25.95;29.74;100237.31;10415469;28;20444;-66
2022/07/30 18:27:36;;;;;;;2.72;1.80;;;;;;;25.87;29.55;100232.19;10417496;28;20044;-65
2022/07/30 18:32:38;;;;;;;3.60;1.40;;;;;;;25.81;29.98;100247.53;10418196;28;20049;-67
2022/07/30 18:37:39;;;;;;;1.50;1.10;;;;;;;25.72;30.45;100255.16;10414917;28;20052;-66
2022/07/30 18:42:42;;;;;;;;;;;;;;;25.60;30.51;100259.69;10408948;28;20048;-66
2022/07/30 18:47:45;;;;;;;3.47;1.63;;;;;;;25.48;30.63;100269.63;10413768;28;20033;-66
2022/07/30 18:52:46;;;;;;;4.85;1.98;;;;;;;25.38;31.04;100270.94;10416641;28;20041;-65
2022/07/30 18:57:48;;;;;;;2.50;1.60;;;;;;;25.25;31.38;100276.44;10416076;28;20121;-65
2022/07/30 19:02:52;;;;;;;1.23;1.00;;;;;;;25.10;31.53;100287.66;10420212;28;20465;-66
2022/07/30 19:07:54;;;;;;;2.42;1.42;;;;;;;24.98;32.74;100295.69;10427739;28;20125;-66
2022/07/30 19:12:59;;;;;;;2.38;1.45;;;;;;;24.91;32.03;100291.34;10445123;28;20067;-65
2022/07/30 19:18:00;;;;;;;3.33;1.75;;;;;;;24.80;32.74;100301.84;10464452;28;20580;-65
2022/07/30 19:23:04;;;;;;;2.67;1.67;;;;;;;24.70;33.79;100296.84;10435359;28;20921;-67
2022/07/30 19:28:05;;;;;;;4.88;2.20;;;;;;;24.72;33.35;100295.81;10460271;28;20144;-66
2022/07/30 19:33:10;;;;;;;3.72;1.70;;;;;;;24.69;33.71;100308.78;10458282;28;20062;-65
2022/07/30 19:38:15;;;;;;;2.58;2.17;;;;;;;24.65;34.30;100317.59;10458739;28;20079;-66
2022/07/30 19:43:24;;;;;;;2.47;1.77;;;;;;;24.58;34.72;100314.06;10456597;28;20039;-66
2022/07/30 19:48:29;;;;;;;4.28;2.55;;;;;;;24.50;35.16;100324.13;10437934;28;20059;-66
2022/07/30 19:53:33;;;;;;;3.72;2.35;;;;;;;24.39;34.65;100324.75;10441141;28;20048;-66
2022/07/30 19:58:35;;;;;;;3.33;2.17;;;;;;;24.36;35.27;100344.22;10456610;28;20165;-65
2022/07/30 20:03:37;;;;;;;4.82;2.22;;;;;;;24.33;35.52;100350.91;10435756;28;20130;-65
2022/07/30 20:08:39;;;;;;;4.07;2.03;;;;;;;24.26;36.05;100344.66;10457496;28;20129;-65
2022/07/30 20:13:40;;;;;;;3.42;2.20;;;;;;;24.15;36.53;100348.84;10440550;28;20063;-61
2022/07/30 20:18:46;;;;;;;4.65;2.50;;;;;;;24.16;38.44;100349.69;10457233;28;20063;-65
2022/07/30 20:23:49;;;;;;;2.85;2.50;;;;;;;24.25;38.00;100353.03;10457717;28;20079;-61
2022/07/30 20:28:52;;;;;;;2.03;1.70;;;;;;;24.28;36.90;100349.91;10456713;28;20650;-58
2022/07/30 20:33:55;;;;;;;3.00;2.20;;;;;;;24.33;37.58;100356.34;10457098;28;20048;-60
2022/07/30 20:38:57;;;;;;;4.10;2.42;;;;;;;24.32;37.94;100360.13;10459446;28;20721;-62
2022/07/30 20:44:01;;;;;;;2.63;1.88;;;;;;;24.30;38.34;100356.78;10458327;28;20182;-57
2022/07/30 20:49:03;;;;;;;4.15;2.08;;;;;;;24.22;37.72;100354.28;10460797;28;20055;-58
2022/07/30 20:54:07;;;;;;;3.22;2.45;;;;;;;24.20;37.95;100352.81;10456720;28;20051;-61
2022/07/30 20:59:08;;;;;;;2.53;1.85;;;;;;;24.14;38.22;100351.78;10455474;28;20047;-56
2022/07/30 21:04:10;;;;;;;5.45;2.30;;;;;;;24.10;38.19;100345.94;10458051;28;20272;-55
2022/07/30 21:09:28;;;;;;;2.78;2.42;;;;;;;24.14;37.80;100351.78;10458995;28;20925;-58
2022/07/30 21:15:00;;;;;;;2.60;1.95;;;;;;;24.06;37.88;100336.53;10420184;28;20053;-59
2022/07/30 21:20:26;;;;;;;4.13;2.30;;;;;;;24.03;38.21;100345.09;10304515;28;20307;-57
2022/07/30 21:25:28;;;;;;;3.55;1.90;;;;;;;24.00;38.50;100357.25;10483740;28;20058;-59
2022/07/30 21:30:33;;;;;;;9.88;2.95;;;;;;;23.96;38.60;100356.00;10483817;28;20440;-59
2022/07/30 21:35:35;;;;;;;2.38;1.80;;;;;;;23.87;38.27;100354.53;10467464;28;20185;-59
2022/07/30 21:40:41;;;;;;;3.17;1.63;;;;;;;23.76;38.58;100352.38;10483067;28;20059;-62
2022/07/30 21:45:44;;;;;;;3.00;1.92;;;;;;;23.68;38.73;100355.31;10485464;28;20109;-58
2022/07/30 21:50:55;;;;;;;5.30;1.95;;;;;;;23.64;39.20;100354.88;10484132;28;20055;-62
2022/07/30 21:55:57;;;;;;;2.13;1.65;;;;;;;23.57;39.31;100363.03;10486621;28;20423;-60
2022/07/30 22:01:01;;;;;;;3.10;1.88;;;;;;;23.55;38.32;100362.38;10481909;28;20047;-61
2022/07/30 22:06:18;;;;;;;3.10;1.58;;;;;;;23.56;39.02;100363.25;10486106;28;20105;-60
2022/07/30 22:11:20;;;;;;;2.08;1.60;;;;;;;23.56;39.20;100363.25;10482924;28;20497;-59
2022/07/30 22:16:21;;;;;;;3.78;1.48;;;;;;;23.48;40.11;100362.38;10478409;28;20445;-65
2022/07/30 22:21:23;;;;;;;5.07;1.70;;;;;;;23.52;38.48;100360.09;10483771;28;20059;-56
2022/07/30 22:26:24;;;;;;;1.77;1.30;;;;;;;23.49;39.40;100371.38;10481439;28;20135;-59
2022/07/30 22:31:27;;;;;;;2.50;1.60;;;;;;;23.44;38.98;100368.44;10493213;28;20055;-61
2022/07/30 22:36:40;;;;;;;2.25;2.05;;;;;;;23.33;40.24;100363.59;10491518;28;20149;-61
2022/07/30 22:41:46;;;;;;;3.75;2.33;;;;;;;23.29;40.24;100355.03;10489041;28;20474;-57
2022/07/30 22:46:47;;;;;;;2.47;2.20;;;;;;;23.28;40.50;100359.63;10491249;28;20055;-57
2022/07/30 22:51:56;;;;;;;4.00;2.22;;;;;;;23.30;40.44;100362.97;10489030;28;20047;-61
2022/07/30 22:57:04;;;;;;;3.55;2.00;;;;;;;23.32;40.36;100378.22;10486249;28;20138;-58
2022/07/30 23:02:05;;;;;;;2.60;2.35;;;;;;;23.18;39.77;100370.03;10485808;28;20695;-56
2022/07/30 23:07:12;;;;;;;2.55;2.30;;;;;;;22.99;40.71;100370.78;10488830;28;20777;-61
2022/07/30 23:12:19;;;;;;;3.90;2.75;;;;;;;22.91;41.22;100366.34;10486661;28;20074;-60
2022/07/30 23:17:20;;;;;;;3.78;2.55;;;;;;;22.91;41.84;100364.47;10485605;28;20048;-60
2022/07/30 23:22:22;;;;;;;3.70;2.30;;;;;;;22.93;41.71;100372.41;10484949;28;20052;-63